Time;durP1;ratioP1;P1;durP2;ratioP2;P2;SDS_P1;SDS_P2;PMS_P1;PMS_P2;Temp;Humidity;BMP_temperature;BMP_pressure;BME280_temperature;BME280_humidity;BME280_pressure;Samples;Min_cycle;Max_cycle;Signal;HPM_P1;HPM_P2
2021/09/14 00:01:58;;;;;;;3.17;2.43;;;;;;;;;;4957566;28;20203;-78
2021/09/14 00:04:23;;;;;;;3.97;2.30;;;;;;;;;;4954575;28;20270;-78
2021/09/14 00:06:48;;;;;;;4.60;2.80;;;;;;;;;;4957102;28;20186;-78
2021/09/14 00:09:14;;;;;;;3.33;2.47;;;;;;;;;;4954716;28;20207;-78
2021/09/14 00:11:42;;;;;;;3.03;2.63;;;;;;;;;;4959191;28;20183;-78
2021/09/14 00:14:07;;;;;;;3.10;2.73;;;;;;;;;;4955235;28;20262;-78
2021/09/14 00:16:33;;;;;;;2.40;2.13;;;;;;;;;;4959722;28;20488;-78
2021/09/14 00:18:58;;;;;;;3.83;2.03;;;;;;;;;;4966239;28;20202;-78
2021/09/14 00:21:24;;;;;;;3.20;2.80;;;;;;;;;;4956098;28;20538;-78
2021/09/14 00:23:49;;;;;;;3.03;2.60;;;;;;;;;;4955559;28;20213;-78
2021/09/14 00:26:14;;;;;;;2.93;2.73;;;;;;;;;;4956040;28;20280;-78
2021/09/14 00:28:39;;;;;;;4.23;2.77;;;;;;;;;;4955855;28;20230;-77
2021/09/14 00:31:05;;;;;;;3.40;2.60;;;;;;;;;;4959589;28;20340;-78
2021/09/14 00:33:30;;;;;;;2.87;2.67;;;;;;;;;;4954331;28;20535;-78
2021/09/14 00:35:55;;;;;;;3.77;2.80;;;;;;;;;;4958338;28;20570;-78
2021/09/14 00:38:20;;;;;;;3.77;3.13;;;;;;;;;;4952911;28;20288;-78
2021/09/14 00:40:46;;;;;;;4.60;3.50;;;;;;;;;;4954552;28;20878;-78
2021/09/14 00:43:18;;;;;;;3.37;2.87;;;;;;;;;;4956913;28;20208;-77
2021/09/14 00:45:43;;;;;;;5.27;3.53;;;;;;;;;;4956156;28;21128;-82
2021/09/14 00:48:08;;;;;;;4.33;3.23;;;;;;;;;;4955925;28;20458;-82
2021/09/14 00:50:33;;;;;;;3.40;3.10;;;;;;;;;;4958273;28;20265;-81
2021/09/14 00:52:59;;;;;;;7.90;2.50;;;;;;;;;;4957232;28;20552;-80
2021/09/14 00:55:24;;;;;;;2.63;2.43;;;;;;;;;;4962115;28;20179;-81
2021/09/14 00:57:52;;;;;;;2.53;2.33;;;;;;;;;;4955029;28;20287;-81
2021/09/14 01:00:17;;;;;;;4.07;3.13;;;;;;;;;;4953263;28;20210;-81
2021/09/14 01:02:42;;;;;;;5.10;2.77;;;;;;;;;;4954534;28;22838;-81
2021/09/14 01:05:08;;;;;;;3.10;2.80;;;;;;;;;;4959237;28;20191;-80
2021/09/14 01:07:33;;;;;;;3.57;2.40;;;;;;;;;;4962659;28;20436;-81
2021/09/14 01:09:59;;;;;;;5.80;2.80;;;;;;;;;;4960143;28;20203;-81
2021/09/14 01:12:24;;;;;;;2.93;2.20;;;;;;;;;;4955607;28;20739;-81
2021/09/14 01:14:54;;;;;;;2.43;2.23;;;;;;;;;;4964480;28;20522;-80
2021/09/14 01:17:19;;;;;;;3.67;2.33;;;;;;;;;;4955289;28;20623;-81
2021/09/14 01:19:44;;;;;;;3.70;2.50;;;;;;;;;;4956533;28;20466;-80
2021/09/14 01:22:10;;;;;;;3.50;2.30;;;;;;;;;;4959327;28;20227;-81
2021/09/14 01:24:35;;;;;;;4.37;2.73;;;;;;;;;;4953865;28;20178;-80
2021/09/14 01:27:00;;;;;;;5.37;3.13;;;;;;;;;;4955276;28;20219;-81
2021/09/14 01:32:09;;;;;;;2.57;2.37;;;;;;;;;;4953196;28;20270;-80
2021/09/14 01:34:34;;;;;;;5.20;2.60;;;;;;;;;;4954624;28;20529;-80
2021/09/14 01:37:00;;;;;;;2.87;2.67;;;;;;;;;;4950092;28;20274;-81
2021/09/14 01:39:25;;;;;;;3.17;2.87;;;;;;;;;;4954409;28;20236;-81
2021/09/14 01:41:50;;;;;;;4.90;2.50;;;;;;;;;;4959053;28;20836;-81
2021/09/14 01:44:15;;;;;;;3.03;2.73;;;;;;;;;;4953034;28;20241;-80
2021/09/14 01:46:41;;;;;;;2.60;2.40;;;;;;;;;;4957956;28;20206;-80
2021/09/14 01:49:06;;;;;;;4.30;2.63;;;;;;;;;;4954521;28;20210;-80
2021/09/14 01:51:31;;;;;;;4.70;2.67;;;;;;;;;;4956445;28;20213;-80
2021/09/14 01:53:57;;;;;;;5.90;2.77;;;;;;;;;;4954671;28;20190;-80
2021/09/14 01:56:22;;;;;;;3.27;2.67;;;;;;;;;;4953783;28;20625;-79
2021/09/14 01:58:47;;;;;;;2.43;2.23;;;;;;;;;;4956840;28;20206;-79
2021/09/14 02:01:36;;;;;;;3.07;2.87;;;;;;;;;;4952327;28;20656;-80
2021/09/14 02:04:09;;;;;;;2.87;2.67;;;;;;;;;;4953795;28;20217;-79
2021/09/14 03:00:33;;;;;;;4.03;3.63;;;;;;;;;;4952255;28;23598;-80
2021/09/14 03:02:58;;;;;;;5.57;4.07;;;;;;;;;;4954169;28;20455;-81
2021/09/14 03:05:23;;;;;;;4.13;3.40;;;;;;;;;;4952535;28;20304;-80
2021/09/14 03:07:49;;;;;;;4.23;3.83;;;;;;;;;;4953666;28;20203;-80
2021/09/14 03:10:14;;;;;;;3.87;3.40;;;;;;;;;;4954746;28;20202;-80
2021/09/14 03:12:39;;;;;;;5.87;4.13;;;;;;;;;;4952573;28;20188;-80
2021/09/14 03:15:05;;;;;;;5.70;4.07;;;;;;;;;;4951308;28;20190;-80
2021/09/14 03:17:30;;;;;;;3.87;3.57;;;;;;;;;;4951805;28;20747;-81
2021/09/14 03:19:55;;;;;;;4.30;3.27;;;;;;;;;;4952862;28;20193;-80
2021/09/14 03:22:20;;;;;;;6.17;3.90;;;;;;;;;;4952569;28;20201;-81
2021/09/14 03:24:46;;;;;;;6.70;4.27;;;;;;;;;;4958360;28;20257;-81
2021/09/14 03:27:11;;;;;;;5.20;4.70;;;;;;;;;;4954123;28;20206;-81
2021/09/14 03:29:36;;;;;;;5.00;4.37;;;;;;;;;;4952218;28;20691;-80
2021/09/14 03:32:02;;;;;;;8.33;3.97;;;;;;;;;;4952214;28;20193;-80
2021/09/14 03:34:27;;;;;;;4.13;3.73;;;;;;;;;;4956102;28;20195;-80
2021/09/14 03:36:52;;;;;;;5.30;3.73;;;;;;;;;;4954264;28;20249;-80
2021/09/14 03:39:17;;;;;;;8.17;5.30;;;;;;;;;;4959343;28;20186;-80
2021/09/14 03:41:43;;;;;;;5.30;3.93;;;;;;;;;;4954138;28;20222;-80
2021/09/14 03:44:08;;;;;;;6.30;3.87;;;;;;;;;;4953637;28;20190;-79
2021/09/14 03:46:33;;;;;;;3.93;3.63;;;;;;;;;;4952328;28;20202;-80
2021/09/14 03:49:00;;;;;;;4.70;4.13;;;;;;;;;;4963711;28;20301;-81
2021/09/14 03:51:25;;;;;;;4.47;3.20;;;;;;;;;;4961023;28;20175;-81
2021/09/14 03:53:50;;;;;;;4.70;2.87;;;;;;;;;;4955941;28;20957;-80
2021/09/14 03:56:15;;;;;;;6.23;2.70;;;;;;;;;;4960362;28;20222;-80
2021/09/14 03:58:41;;;;;;;3.70;2.97;;;;;;;;;;4960294;28;20199;-80
2021/09/14 04:01:06;;;;;;;3.93;3.10;;;;;;;;;;4959380;28;20209;-80
2021/09/14 04:11:08;;;;;;;2.80;2.60;;;;;;;;;;4957284;28;20205;-80
2021/09/14 04:13:34;;;;;;;2.60;2.40;;;;;;;;;;4956026;28;21399;-80
2021/09/14 04:15:59;;;;;;;2.70;2.50;;;;;;;;;;4953304;28;20714;-80
2021/09/14 04:18:24;;;;;;;4.70;3.33;;;;;;;;;;4958963;28;20674;-80
2021/09/14 04:20:49;;;;;;;3.87;3.07;;;;;;;;;;4964775;28;20265;-81
2021/09/14 04:23:15;;;;;;;2.70;2.50;;;;;;;;;;4956767;28;20223;-81
2021/09/14 04:25:40;;;;;;;6.23;2.20;;;;;;;;;;4958357;28;20181;-80
2021/09/14 04:28:05;;;;;;;3.10;2.60;;;;;;;;;;4959778;28;20203;-80
2021/09/14 04:30:30;;;;;;;4.83;2.70;;;;;;;;;;4955011;28;20297;-80
2021/09/14 04:32:56;;;;;;;4.00;2.80;;;;;;;;;;4954037;28;20191;-80
2021/09/14 04:35:21;;;;;;;2.50;2.30;;;;;;;;;;4958079;28;20187;-81
2021/09/14 04:37:46;;;;;;;2.60;2.33;;;;;;;;;;4962855;28;20674;-80
2021/09/14 04:40:12;;;;;;;4.73;2.73;;;;;;;;;;4958154;28;20639;-80
2021/09/14 04:42:37;;;;;;;2.47;2.27;;;;;;;;;;4957319;28;20637;-81
2021/09/14 04:45:02;;;;;;;5.77;3.00;;;;;;;;;;4955373;28;20631;-80
2021/09/14 04:47:28;;;;;;;4.17;2.70;;;;;;;;;;4952243;28;20741;-80
2021/09/14 04:49:53;;;;;;;10.50;3.50;;;;;;;;;;4965527;28;20202;-80
2021/09/14 04:52:18;;;;;;;4.03;2.70;;;;;;;;;;4959592;28;20238;-80
2021/09/14 04:54:43;;;;;;;4.60;2.63;;;;;;;;;;4955667;28;20186;-81
2021/09/14 04:57:09;;;;;;;2.90;2.30;;;;;;;;;;4956481;28;20190;-80
2021/09/14 04:59:36;;;;;;;3.93;2.63;;;;;;;;;;4962791;28;20190;-80
2021/09/14 05:02:02;;;;;;;3.43;3.10;;;;;;;;;;4968815;28;20183;-79
2021/09/14 05:04:27;;;;;;;3.00;2.67;;;;;;;;;;4967456;28;20978;-79
2021/09/14 05:06:52;;;;;;;2.77;2.57;;;;;;;;;;4956222;28;20645;-79
2021/09/14 05:09:18;;;;;;;6.33;2.77;;;;;;;;;;4963183;28;20211;-78
2021/09/14 05:11:44;;;;;;;4.07;3.10;;;;;;;;;;4961059;28;20186;-78
2021/09/14 05:14:10;;;;;;;2.87;2.57;;;;;;;;;;4968684;28;20179;-78
2021/09/14 05:16:35;;;;;;;3.00;2.40;;;;;;;;;;4963812;28;20430;-78
2021/09/14 05:19:02;;;;;;;2.53;2.33;;;;;;;;;;4957365;28;20218;-78
2021/09/14 05:21:27;;;;;;;2.70;2.40;;;;;;;;;;4955272;28;20566;-78
2021/09/14 05:23:53;;;;;;;4.50;2.43;;;;;;;;;;4961443;28;20457;-79
2021/09/14 05:26:21;;;;;;;3.30;3.00;;;;;;;;;;4963483;28;20182;-78
2021/09/14 05:28:46;;;;;;;3.13;2.80;;;;;;;;;;4962607;28;20210;-79
2021/09/14 05:31:11;;;;;;;3.97;2.70;;;;;;;;;;4963342;28;20574;-79
2021/09/14 05:33:38;;;;;;;4.70;3.60;;;;;;;;;;4963063;28;20175;-79
2021/09/14 05:36:05;;;;;;;5.40;3.20;;;;;;;;;;4963222;28;20190;-80
2021/09/14 05:38:30;;;;;;;4.60;3.10;;;;;;;;;;4963672;28;20439;-79
2021/09/14 05:40:56;;;;;;;3.20;2.90;;;;;;;;;;4964222;28;20492;-79
2021/09/14 05:43:22;;;;;;;3.63;3.33;;;;;;;;;;4964370;28;20198;-79
2021/09/14 05:45:47;;;;;;;4.73;2.97;;;;;;;;;;4963938;28;20183;-79
2021/09/14 05:48:12;;;;;;;3.30;3.00;;;;;;;;;;4962969;28;20205;-78
2021/09/14 05:50:38;;;;;;;4.17;3.20;;;;;;;;;;4963935;28;20278;-79
2021/09/14 05:53:04;;;;;;;3.50;3.10;;;;;;;;;;4964067;28;20183;-79
2021/09/14 05:55:29;;;;;;;4.07;3.47;;;;;;;;;;4962801;28;20175;-78
2021/09/14 05:57:54;;;;;;;6.13;2.87;;;;;;;;;;4962117;28;20293;-78
2021/09/14 06:00:22;;;;;;;5.80;3.70;;;;;;;;;;4957730;28;20190;-80
2021/09/14 06:02:47;;;;;;;5.07;3.33;;;;;;;;;;4950135;28;20195;-79
2021/09/14 06:05:12;;;;;;;6.10;3.53;;;;;;;;;;4955161;28;20453;-78
2021/09/14 06:07:37;;;;;;;7.17;4.27;;;;;;;;;;4959109;28;20214;-79
2021/09/14 06:10:03;;;;;;;4.50;3.50;;;;;;;;;;4963228;28;20198;-79
2021/09/14 06:12:28;;;;;;;5.90;3.80;;;;;;;;;;4969342;28;21159;-79
2021/09/14 06:14:53;;;;;;;6.87;3.60;;;;;;;;;;4950621;28;20186;-78
2021/09/14 06:17:19;;;;;;;3.70;3.30;;;;;;;;;;4947945;28;20246;-78
2021/09/14 06:19:44;;;;;;;5.70;3.30;;;;;;;;;;4951811;28;20197;-78
2021/09/14 06:22:09;;;;;;;4.30;3.10;;;;;;;;;;4952233;28;20288;-78
2021/09/14 06:24:34;;;;;;;5.30;3.23;;;;;;;;;;4947988;28;20667;-75
2021/09/14 06:27:00;;;;;;;4.90;3.27;;;;;;;;;;4951087;28;20186;-77
2021/09/14 06:29:25;;;;;;;5.50;2.90;;;;;;;;;;4950679;28;20199;-78
2021/09/14 06:31:50;;;;;;;4.30;2.80;;;;;;;;;;4957030;28;20827;-77
2021/09/14 06:34:15;;;;;;;3.40;2.80;;;;;;;;;;4952111;28;20197;-77
2021/09/14 06:36:41;;;;;;;3.80;2.80;;;;;;;;;;4953278;28;20177;-77
2021/09/14 06:39:06;;;;;;;4.03;2.90;;;;;;;;;;4947915;28;20219;-78
2021/09/14 06:41:31;;;;;;;4.47;3.30;;;;;;;;;;4955459;28;20197;-77
2021/09/14 06:43:58;;;;;;;5.47;3.60;;;;;;;;;;4955657;28;20201;-77
2021/09/14 06:46:23;;;;;;;3.90;3.20;;;;;;;;;;4949175;28;20666;-77
2021/09/14 06:48:48;;;;;;;3.47;3.13;;;;;;;;;;4945856;28;20465;-78
2021/09/14 06:51:14;;;;;;;7.40;3.40;;;;;;;;;;4962652;28;20281;-78
2021/09/14 06:53:39;;;;;;;4.30;3.17;;;;;;;;;;4953038;28;20174;-78
2021/09/14 06:56:06;;;;;;;4.33;3.13;;;;;;;;;;4956043;28;20205;-77
2021/09/14 06:58:31;;;;;;;3.87;3.27;;;;;;;;;;4950745;28;20345;-77
2021/09/14 07:00:57;;;;;;;4.10;3.00;;;;;;;;;;4953281;28;20434;-77
2021/09/14 07:03:22;;;;;;;5.27;3.47;;;;;;;;;;4952137;28;20667;-78
2021/09/14 07:05:47;;;;;;;3.43;3.13;;;;;;;;;;4952375;28;20281;-78
2021/09/14 07:08:13;;;;;;;7.30;3.43;;;;;;;;;;4961181;28;20202;-78
2021/09/14 07:10:38;;;;;;;6.93;3.70;;;;;;;;;;4952255;28;20305;-78
2021/09/14 07:13:04;;;;;;;3.47;2.73;;;;;;;;;;4948891;28;20179;-77
2021/09/14 07:15:29;;;;;;;5.80;3.20;;;;;;;;;;4953310;28;20195;-77
2021/09/14 07:17:54;;;;;;;4.53;3.00;;;;;;;;;;4951783;28;20198;-77
2021/09/14 07:20:19;;;;;;;6.70;4.03;;;;;;;;;;4955951;28;20250;-79
2021/09/14 07:22:45;;;;;;;5.37;3.40;;;;;;;;;;4952404;28;20666;-78
2021/09/14 07:25:10;;;;;;;3.70;3.00;;;;;;;;;;4952864;28;20194;-79
2021/09/14 07:27:35;;;;;;;5.50;3.17;;;;;;;;;;4950520;28;20214;-78
2021/09/14 07:30:01;;;;;;;3.13;2.83;;;;;;;;;;4951202;28;20293;-77
2021/09/14 07:32:27;;;;;;;2.60;2.40;;;;;;;;;;4956772;28;20249;-78
2021/09/14 07:34:52;;;;;;;3.90;2.73;;;;;;;;;;4952860;28;20183;-78
2021/09/14 07:37:17;;;;;;;4.17;3.00;;;;;;;;;;4946855;28;27457;-76
2021/09/14 07:39:42;;;;;;;3.33;2.67;;;;;;;;;;4948765;28;20202;-76
2021/09/14 07:42:08;;;;;;;4.33;2.83;;;;;;;;;;4950407;28;20269;-76
2021/09/14 07:44:33;;;;;;;3.70;2.80;;;;;;;;;;4949357;28;20279;-77
2021/09/14 07:46:58;;;;;;;4.10;2.50;;;;;;;;;;4947862;28;20268;-76
2021/09/14 07:49:24;;;;;;;5.00;2.97;;;;;;;;;;4956287;28;20214;-75
2021/09/14 07:51:49;;;;;;;4.20;2.63;;;;;;;;;;4959347;28;20176;-76
2021/09/14 07:54:14;;;;;;;2.90;2.60;;;;;;;;;;4946628;28;20188;-76
2021/09/14 07:56:39;;;;;;;3.10;2.80;;;;;;;;;;4950137;28;20664;-77
2021/09/14 07:59:05;;;;;;;2.90;2.43;;;;;;;;;;4947992;28;20303;-76
2021/09/14 08:01:30;;;;;;;4.93;3.00;;;;;;;;;;4950147;28;20578;-76
2021/09/14 08:03:55;;;;;;;3.37;3.07;;;;;;;;;;4950415;28;20190;-76
2021/09/14 08:06:20;;;;;;;3.70;2.80;;;;;;;;;;4948720;28;20188;-76
2021/09/14 08:08:46;;;;;;;8.80;3.37;;;;;;;;;;4951226;28;20207;-76
2021/09/14 08:11:12;;;;;;;4.20;2.90;;;;;;;;;;4950599;28;20616;-75
2021/09/14 08:13:37;;;;;;;6.17;3.20;;;;;;;;;;4959818;28;20273;-75
2021/09/14 08:16:03;;;;;;;3.37;2.67;;;;;;;;;;4946578;28;20911;-76
2021/09/14 08:18:29;;;;;;;4.50;3.50;;;;;;;;;;4950767;28;20213;-76
2021/09/14 08:20:54;;;;;;;8.43;3.60;;;;;;;;;;4952384;28;20433;-76
2021/09/14 08:23:19;;;;;;;3.33;3.03;;;;;;;;;;4954966;28;20191;-75
2021/09/14 08:25:45;;;;;;;4.23;3.23;;;;;;;;;;4955666;28;20190;-75
2021/09/14 08:28:13;;;;;;;3.50;2.93;;;;;;;;;;4950719;28;20272;-75
2021/09/14 08:30:38;;;;;;;6.70;3.30;;;;;;;;;;4969229;28;20688;-76
2021/09/14 08:33:05;;;;;;;4.20;3.10;;;;;;;;;;4958348;28;20473;-76
2021/09/14 08:35:30;;;;;;;5.13;3.20;;;;;;;;;;4961450;28;20186;-77
2021/09/14 08:37:55;;;;;;;4.53;3.87;;;;;;;;;;4962372;28;20488;-76
2021/09/14 08:40:21;;;;;;;4.50;4.10;;;;;;;;;;4963938;28;20226;-76
2021/09/14 08:42:47;;;;;;;6.10;3.23;;;;;;;;;;4949255;28;20215;-75
2021/09/14 08:45:12;;;;;;;5.03;3.70;;;;;;;;;;4951848;28;20218;-76
2021/09/14 08:47:38;;;;;;;8.13;4.40;;;;;;;;;;4955733;28;20301;-77
2021/09/14 08:50:04;;;;;;;5.23;4.27;;;;;;;;;;4961223;28;20210;-77
2021/09/14 08:52:31;;;;;;;6.10;4.60;;;;;;;;;;4962199;28;20457;-77
2021/09/14 08:54:56;;;;;;;7.30;4.90;;;;;;;;;;4963340;28;20571;-76
2021/09/14 08:57:21;;;;;;;8.53;4.40;;;;;;;;;;4963461;28;20434;-76
2021/09/14 08:59:47;;;;;;;7.67;4.60;;;;;;;;;;4963151;28;20190;-77
2021/09/14 09:02:16;;;;;;;6.30;4.57;;;;;;;;;;4963611;28;20183;-78
2021/09/14 09:04:53;;;;;;;7.60;4.93;;;;;;;;;;4963236;28;20183;-77
2021/09/14 09:07:26;;;;;;;6.83;4.60;;;;;;;;;;4962275;28;20509;-76
2021/09/14 09:09:52;;;;;;;8.10;5.13;;;;;;;;;;4962795;28;20462;-76
2021/09/14 09:12:20;;;;;;;8.20;5.23;;;;;;;;;;4963226;28;20873;-76
2021/09/14 09:14:47;;;;;;;5.60;4.20;;;;;;;;;;4963840;28;20171;-78
2021/09/14 09:17:16;;;;;;;5.23;4.70;;;;;;;;;;4963470;28;20567;-76
2021/09/14 09:20:03;;;;;;;5.30;4.60;;;;;;;;;;4964729;28;20967;-76
2021/09/14 09:22:29;;;;;;;5.63;4.40;;;;;;;;;;4953596;28;20879;-76
2021/09/14 09:24:54;;;;;;;6.47;4.57;;;;;;;;;;4954508;28;20469;-77
2021/09/14 09:27:24;;;;;;;7.10;5.03;;;;;;;;;;4953468;28;20678;-76
2021/09/14 09:30:00;;;;;;;6.50;5.10;;;;;;;;;;4952980;28;20207;-77
2021/09/14 09:32:25;;;;;;;5.10;4.40;;;;;;;;;;4954967;28;20438;-75
2021/09/14 09:34:59;;;;;;;6.43;4.63;;;;;;;;;;4952066;28;20438;-77
2021/09/14 09:37:25;;;;;;;8.03;4.87;;;;;;;;;;4956354;28;20211;-77
2021/09/14 09:39:51;;;;;;;10.23;5.70;;;;;;;;;;4952085;28;20450;-78
2021/09/14 09:42:16;;;;;;;7.33;5.80;;;;;;;;;;4953997;28;20194;-76
2021/09/14 09:44:55;;;;;;;5.40;4.43;;;;;;;;;;4960265;28;20270;-76
2021/09/14 09:47:20;;;;;;;6.43;4.77;;;;;;;;;;4953565;28;20217;-76
2021/09/14 09:49:48;;;;;;;8.10;5.03;;;;;;;;;;4951304;28;20478;-76
2021/09/14 09:52:14;;;;;;;7.53;5.40;;;;;;;;;;4956072;28;20178;-77
2021/09/14 09:54:39;;;;;;;7.63;4.87;;;;;;;;;;4952286;28;20429;-76
2021/09/14 09:57:07;;;;;;;6.20;4.50;;;;;;;;;;4954524;28;20193;-76
2021/09/14 09:59:32;;;;;;;6.47;5.10;;;;;;;;;;4955894;28;20262;-78
2021/09/14 10:02:02;;;;;;;9.00;5.10;;;;;;;;;;4953685;28;20919;-77
2021/09/14 10:04:28;;;;;;;9.13;5.27;;;;;;;;;;4953061;28;20558;-76
2021/09/14 10:06:56;;;;;;;7.87;5.50;;;;;;;;;;4952253;28;20862;-77
2021/09/14 10:09:28;;;;;;;5.83;5.30;;;;;;;;;;4958693;28;20474;-77
2021/09/14 10:11:54;;;;;;;8.80;6.73;;;;;;;;;;4951819;28;20431;-77
2021/09/14 10:14:19;;;;;;;8.33;7.20;;;;;;;;;;4950714;28;20537;-77
2021/09/14 10:16:45;;;;;;;7.30;5.43;;;;;;;;;;4951497;28;20175;-77
2021/09/14 10:19:15;;;;;;;9.20;6.23;;;;;;;;;;4951890;28;20207;-76
2021/09/14 10:21:45;;;;;;;8.37;6.43;;;;;;;;;;4949950;28;20711;-77
2021/09/14 10:24:23;;;;;;;7.87;6.30;;;;;;;;;;4952381;28;20435;-76
2021/09/14 10:26:49;;;;;;;6.27;5.43;;;;;;;;;;4954086;28;20790;-74
2021/09/14 10:29:15;;;;;;;6.10;5.00;;;;;;;;;;4947965;28;20466;-77
2021/09/14 10:31:42;;;;;;;8.17;5.20;;;;;;;;;;4959359;28;20294;-77
2021/09/14 10:34:11;;;;;;;5.73;4.30;;;;;;;;;;4950251;28;20447;-76
2021/09/14 10:36:40;;;;;;;5.10;4.50;;;;;;;;;;4949558;28;20251;-76
2021/09/14 10:39:20;;;;;;;6.27;5.20;;;;;;;;;;4951382;28;20457;-77
2021/09/14 10:41:49;;;;;;;5.60;4.87;;;;;;;;;;4951812;28;20438;-76
2021/09/14 10:44:22;;;;;;;5.40;4.63;;;;;;;;;;4956757;28;20828;-76
2021/09/14 10:47:02;;;;;;;4.70;4.20;;;;;;;;;;4961388;28;20425;-76
2021/09/14 10:49:40;;;;;;;7.00;4.80;;;;;;;;;;4962970;28;20490;-76
2021/09/14 10:52:06;;;;;;;6.83;5.60;;;;;;;;;;4950773;28;20942;-77
2021/09/14 10:54:31;;;;;;;6.10;4.90;;;;;;;;;;4950195;28;20473;-77
2021/09/14 10:56:57;;;;;;;6.57;5.13;;;;;;;;;;4948591;28;20643;-77
2021/09/14 10:59:22;;;;;;;7.00;4.40;;;;;;;;;;4949368;28;20186;-78
2021/09/14 11:01:48;;;;;;;7.80;5.07;;;;;;;;;;4956976;28;20914;-77
2021/09/14 11:04:13;;;;;;;5.00;4.40;;;;;;;;;;4960878;28;20191;-76
2021/09/14 11:06:39;;;;;;;8.20;4.77;;;;;;;;;;4960505;28;20190;-76
2021/09/14 11:09:05;;;;;;;4.73;4.30;;;;;;;;;;4951453;28;20215;-76
2021/09/14 11:11:30;;;;;;;5.30;4.80;;;;;;;;;;4961374;28;20290;-76
2021/09/14 11:13:55;;;;;;;4.63;4.23;;;;;;;;;;4959746;28;21200;-77
2021/09/14 11:16:21;;;;;;;5.50;4.97;;;;;;;;;;4961575;28;20218;-77
2021/09/14 11:18:46;;;;;;;5.30;4.43;;;;;;;;;;4961425;28;20293;-77
2021/09/14 11:21:13;;;;;;;5.57;4.37;;;;;;;;;;4961797;28;20225;-77
2021/09/14 11:23:39;;;;;;;5.57;4.67;;;;;;;;;;4961392;28;20202;-77
2021/09/14 11:26:09;;;;;;;6.20;4.73;;;;;;;;;;4958979;28;20441;-76
2021/09/14 11:28:34;;;;;;;5.73;5.03;;;;;;;;;;4956181;28;21226;-77
2021/09/14 11:31:01;;;;;;;4.23;3.83;;;;;;;;;;4961711;28;20553;-77
2021/09/14 11:33:28;;;;;;;4.40;3.70;;;;;;;;;;4960003;28;20183;-77
2021/09/14 11:35:58;;;;;;;3.53;3.23;;;;;;;;;;4959368;28;20441;-77
2021/09/14 11:38:24;;;;;;;4.37;3.37;;;;;;;;;;4949421;28;20460;-77
2021/09/14 11:40:52;;;;;;;4.80;4.40;;;;;;;;;;4960208;28;20438;-76
2021/09/14 11:43:18;;;;;;;3.60;3.30;;;;;;;;;;4962000;28;20269;-77
2021/09/14 11:45:44;;;;;;;3.47;3.17;;;;;;;;;;4961061;28;20526;-77
2021/09/14 11:48:15;;;;;;;4.27;3.87;;;;;;;;;;4947789;28;20548;-77
2021/09/14 11:50:40;;;;;;;5.53;4.50;;;;;;;;;;4949020;28;20213;-77
2021/09/14 11:53:07;;;;;;;5.20;4.70;;;;;;;;;;4945814;28;20439;-77
2021/09/14 11:55:32;;;;;;;6.00;4.23;;;;;;;;;;4960147;28;20187;-77
2021/09/14 11:57:58;;;;;;;5.63;3.50;;;;;;;;;;4961336;28;20989;-77
2021/09/14 12:00:36;;;;;;;8.60;5.50;;;;;;;;;;4963822;28;20186;-79
2021/09/14 12:03:02;;;;;;;6.50;4.70;;;;;;;;;;4962565;28;20210;-78
2021/09/14 12:05:27;;;;;;;5.03;4.00;;;;;;;;;;4964016;28;20926;-78
2021/09/14 12:07:57;;;;;;;7.10;4.70;;;;;;;;;;4964759;28;20205;-77
2021/09/14 12:10:22;;;;;;;7.50;5.10;;;;;;;;;;4964518;28;20219;-77
2021/09/14 12:12:54;;;;;;;5.80;4.20;;;;;;;;;;4965156;28;20434;-77
2021/09/14 12:15:20;;;;;;;5.50;5.00;;;;;;;;;;4960849;28;20225;-77
2021/09/14 12:17:45;;;;;;;4.40;3.80;;;;;;;;;;4950448;28;20498;-76
2021/09/14 12:20:10;;;;;;;4.30;3.90;;;;;;;;;;4951713;28;20199;-77
2021/09/14 12:22:35;;;;;;;6.97;4.77;;;;;;;;;;4954657;28;20770;-76
2021/09/14 12:25:01;;;;;;;5.33;4.73;;;;;;;;;;4961291;28;20193;-77
2021/09/14 12:27:29;;;;;;;4.37;3.97;;;;;;;;;;4965615;28;20285;-77
2021/09/14 12:29:54;;;;;;;5.03;4.53;;;;;;;;;;4965981;28;20203;-77
2021/09/14 12:32:19;;;;;;;7.73;5.60;;;;;;;;;;4959946;28;20450;-76
2021/09/14 12:34:45;;;;;;;5.27;4.83;;;;;;;;;;4960534;28;20183;-76
2021/09/14 12:37:10;;;;;;;6.63;5.90;;;;;;;;;;4962523;28;20195;-76
2021/09/14 12:39:35;;;;;;;5.23;4.73;;;;;;;;;;4965245;28;20210;-77
2021/09/14 12:42:00;;;;;;;5.03;4.53;;;;;;;;;;4966029;28;20218;-77
2021/09/14 12:44:26;;;;;;;5.83;4.20;;;;;;;;;;4970204;28;21160;-77
2021/09/14 12:46:55;;;;;;;5.90;5.30;;;;;;;;;;4962888;28;20647;-78
2021/09/14 12:49:20;;;;;;;6.83;4.43;;;;;;;;;;4964126;28;20206;-77
2021/09/14 12:51:46;;;;;;;7.97;5.57;;;;;;;;;;4961738;28;20935;-76
2021/09/14 12:54:11;;;;;;;7.07;6.00;;;;;;;;;;4954876;28;20175;-76
2021/09/14 12:56:36;;;;;;;9.30;5.20;;;;;;;;;;4955497;28;20191;-78
2021/09/14 12:59:03;;;;;;;4.60;4.23;;;;;;;;;;4950579;28;20280;-77
2021/09/14 13:01:28;;;;;;;5.23;4.37;;;;;;;;;;4949351;28;20913;-76
2021/09/14 13:03:53;;;;;;;5.00;4.47;;;;;;;;;;4949513;28;20500;-79
2021/09/14 13:06:18;;;;;;;5.17;4.43;;;;;;;;;;4949430;28;20194;-77
2021/09/14 13:08:44;;;;;;;5.20;4.70;;;;;;;;;;4949678;28;20273;-77
2021/09/14 13:11:09;;;;;;;4.80;4.40;;;;;;;;;;4949497;28;20171;-76
2021/09/14 13:16:18;;;;;;;6.07;4.40;;;;;;;;;;4950699;28;20194;-78
2021/09/14 13:18:45;;;;;;;5.70;4.50;;;;;;;;;;4962385;28;20449;-76
2021/09/14 13:21:11;;;;;;;5.30;4.80;;;;;;;;;;4959451;28;20241;-76
2021/09/14 13:23:37;;;;;;;5.50;4.77;;;;;;;;;;4962122;28;20442;-77
2021/09/14 13:26:03;;;;;;;4.63;3.93;;;;;;;;;;4962180;28;20570;-78
2021/09/14 13:28:28;;;;;;;6.77;4.57;;;;;;;;;;4955204;28;20203;-77
2021/09/14 13:30:53;;;;;;;6.17;5.67;;;;;;;;;;4963787;28;20466;-79
2021/09/14 13:33:19;;;;;;;5.23;4.70;;;;;;;;;;4959903;28;20672;-77
2021/09/14 13:35:44;;;;;;;7.80;4.87;;;;;;;;;;4955620;28;20178;-77
2021/09/14 13:38:09;;;;;;;5.30;4.80;;;;;;;;;;4956099;28;20242;-77
2021/09/14 13:40:35;;;;;;;5.03;4.53;;;;;;;;;;4955827;28;20281;-77
2021/09/14 13:43:01;;;;;;;7.27;6.30;;;;;;;;;;4954305;28;20282;-77
2021/09/14 13:48:11;;;;;;;6.77;5.00;;;;;;;;;;4957554;28;20780;-77
2021/09/14 13:50:37;;;;;;;4.90;4.43;;;;;;;;;;4958103;28;20470;-77
2021/09/14 13:53:02;;;;;;;5.00;4.40;;;;;;;;;;4955005;28;20182;-78
2021/09/14 13:55:27;;;;;;;5.20;4.70;;;;;;;;;;4956171;28;20191;-77
2021/09/14 13:57:53;;;;;;;6.80;4.83;;;;;;;;;;4956230;28;20195;-78
2021/09/14 14:00:18;;;;;;;5.93;5.33;;;;;;;;;;4957848;28;20183;-77
2021/09/14 14:02:43;;;;;;;5.70;5.20;;;;;;;;;;4954243;28;20222;-77
2021/09/14 14:05:09;;;;;;;5.90;5.37;;;;;;;;;;4958833;28;20191;-78
2021/09/14 14:07:34;;;;;;;5.23;4.80;;;;;;;;;;4963136;28;20267;-77
2021/09/14 14:10:00;;;;;;;7.53;5.87;;;;;;;;;;4963925;28;20206;-78
2021/09/14 14:12:25;;;;;;;7.43;5.73;;;;;;;;;;4963383;28;20187;-77
2021/09/14 14:14:50;;;;;;;8.67;5.70;;;;;;;;;;4963587;28;20685;-77
2021/09/14 14:17:17;;;;;;;5.30;4.80;;;;;;;;;;4961077;28;20475;-77
2021/09/14 14:19:42;;;;;;;6.40;5.80;;;;;;;;;;4956954;28;20182;-78
2021/09/14 14:22:07;;;;;;;7.77;5.77;;;;;;;;;;4960566;28;20452;-77
2021/09/14 14:24:32;;;;;;;6.30;5.67;;;;;;;;;;4962450;28;20324;-78
2021/09/14 14:26:58;;;;;;;6.50;4.93;;;;;;;;;;4963391;28;20179;-77
2021/09/14 14:29:23;;;;;;;6.17;5.57;;;;;;;;;;4957901;28;20225;-78
2021/09/14 14:31:48;;;;;;;5.73;5.23;;;;;;;;;;4956959;28;20178;-78
2021/09/14 14:34:13;;;;;;;7.53;6.67;;;;;;;;;;4954417;28;20183;-78
2021/09/14 14:36:39;;;;;;;6.63;6.03;;;;;;;;;;4953660;28;20237;-78
2021/09/14 14:39:04;;;;;;;5.87;5.33;;;;;;;;;;4954506;28;20210;-78
2021/09/14 14:41:29;;;;;;;6.20;5.63;;;;;;;;;;4956028;28;20237;-78
2021/09/14 14:43:54;;;;;;;6.80;6.07;;;;;;;;;;4960092;28;20247;-78
2021/09/14 14:46:20;;;;;;;7.13;6.40;;;;;;;;;;4956868;28;20175;-77
2021/09/14 14:48:45;;;;;;;6.57;5.97;;;;;;;;;;4956275;28;20198;-78
2021/09/14 14:51:10;;;;;;;6.83;5.77;;;;;;;;;;4961426;28;20715;-77
2021/09/14 14:53:35;;;;;;;7.10;6.10;;;;;;;;;;4961567;28;20269;-78
2021/09/14 14:56:00;;;;;;;7.07;6.47;;;;;;;;;;4960431;28;20179;-77
2021/09/14 14:58:26;;;;;;;7.17;6.50;;;;;;;;;;4955484;28;20206;-77
2021/09/14 15:00:51;;;;;;;6.93;6.30;;;;;;;;;;4956120;28;20632;-77
2021/09/14 15:03:16;;;;;;;6.40;5.80;;;;;;;;;;4961582;28;20635;-77
2021/09/14 15:05:42;;;;;;;6.60;5.90;;;;;;;;;;4959529;28;20191;-77
2021/09/14 15:08:07;;;;;;;7.60;6.80;;;;;;;;;;4953735;28;20202;-77
2021/09/14 15:10:32;;;;;;;8.13;6.77;;;;;;;;;;4959200;28;20202;-77
2021/09/14 15:12:57;;;;;;;7.20;6.50;;;;;;;;;;4962582;28;20198;-78
2021/09/14 15:15:23;;;;;;;6.70;6.10;;;;;;;;;;4961319;28;20262;-78
2021/09/14 15:17:48;;;;;;;6.60;6.00;;;;;;;;;;4953368;28;20501;-79
2021/09/14 15:20:13;;;;;;;7.10;6.27;;;;;;;;;;4954505;28;20198;-78
2021/09/14 15:22:39;;;;;;;6.70;6.10;;;;;;;;;;4960131;28;20228;-78
2021/09/14 15:25:05;;;;;;;7.87;6.00;;;;;;;;;;4961825;28;20644;-78
2021/09/14 15:27:30;;;;;;;5.97;5.20;;;;;;;;;;4962707;28;20537;-78
2021/09/14 15:29:56;;;;;;;6.33;5.83;;;;;;;;;;4962277;28;20206;-78
2021/09/14 15:32:22;;;;;;;7.70;6.90;;;;;;;;;;4964669;28;20190;-78
2021/09/14 15:34:47;;;;;;;7.30;6.30;;;;;;;;;;4970175;28;21201;-78
2021/09/14 15:37:13;;;;;;;7.43;6.83;;;;;;;;;;4970130;28;20194;-78
2021/09/14 15:39:39;;;;;;;6.07;5.30;;;;;;;;;;4968944;28;20559;-77
2021/09/14 15:42:05;;;;;;;8.50;5.93;;;;;;;;;;4968271;28;20453;-77
2021/09/14 15:44:30;;;;;;;7.10;6.50;;;;;;;;;;4969464;28;20635;-77
2021/09/14 15:46:56;;;;;;;7.57;6.73;;;;;;;;;;4968156;28;20186;-76